Maud, Texas
Current Conditions -  °F | °C
As of 7:23 AM on Saturday 20 Dec 2014 (Local Time) from KTXK Reporting Station
Haze Haze  
Wind Chill: 39°   Ceiling: 3600
Heat Index: 42°   Visibility: 5mi
Dew Point: 40°   Wind: 5mph
Humidity: 92%   Direction: 60°ENE
Pressure: 30.25"   Gusts: NA
Location:  33.33°N, 94.34°W
Report Text: KTXK 201323Z AUTO 06004KT 5SM BR SCT008 SCT012 OVC036 06/04 A3025 RMK AO2 T00560044
Loading
Personal Weather Stations






























Interactive Weather Map New forecast layout! Learn more

10-Day Weather Forecast

Advertisements
Track Severe Weather on mobile